sensor_id;sensor_type;location;lat;lon;timestamp;pressure;altitude;pressure_sealevel;temperature;humidity
12775;BME280;6451;42.630;23.382;2023-02-03T00:01:14;94557.66;;;2.61;100.00
12775;BME280;6451;42.630;23.382;2023-02-03T00:03:41;94580.28;;;2.68;100.00
12775;BME280;6451;42.630;23.382;2023-02-03T00:06:12;94591.25;;;2.72;100.00
12775;BME280;6451;42.630;23.382;2023-02-03T00:08:39;94600.56;;;2.74;100.00
12775;BME280;6451;42.630;23.382;2023-02-03T00:11:06;94598.69;;;2.56;100.00
12775;BME280;6451;42.630;23.382;2023-02-03T00:13:35;94594.78;;;2.48;100.00
12775;BME280;6451;42.630;23.382;2023-02-03T00:16:02;94616.56;;;2.42;100.00
12775;BME280;6451;42.630;23.382;2023-02-03T00:18:31;94613.09;;;2.41;100.00
12775;BME280;6451;42.630;23.382;2023-02-03T00:20:59;94613.50;;;2.30;100.00
12775;BME280;6451;42.630;23.382;2023-02-03T00:23:27;94609.97;;;2.34;100.00
12775;BME280;6451;42.630;23.382;2023-02-03T00:25:56;94615.56;;;2.38;100.00
12775;BME280;6451;42.630;23.382;2023-02-03T00:28:23;94604.97;;;2.28;100.00
12775;BME280;6451;42.630;23.382;2023-02-03T00:30:53;94630.94;;;2.27;100.00
12775;BME280;6451;42.630;23.382;2023-02-03T00:33:20;94632.25;;;2.30;100.00
12775;BME280;6451;42.630;23.382;2023-02-03T00:35:46;94632.81;;;2.27;100.00
12775;BME280;6451;42.630;23.382;2023-02-03T00:38:14;94620.53;;;2.02;100.00
12775;BME280;6451;42.630;23.382;2023-02-03T00:40:50;94638.34;;;2.11;100.00
12775;BME280;6451;42.630;23.382;2023-02-03T00:43:18;94640.09;;;2.21;100.00
12775;BME280;6451;42.630;23.382;2023-02-03T00:45:45;94651.63;;;2.21;100.00
12775;BME280;6451;42.630;23.382;2023-02-03T00:48:12;94651.06;;;2.25;100.00
12775;BME280;6451;42.630;23.382;2023-02-03T00:50:39;94621.00;;;2.09;100.00
12775;BME280;6451;42.630;23.382;2023-02-03T00:53:06;94649.97;;;2.26;100.00
12775;BME280;6451;42.630;23.382;2023-02-03T00:55:33;94594.88;;;1.77;100.00
12775;BME280;6451;42.630;23.382;2023-02-03T00:58:01;94653.44;;;2.26;100.00
12775;BME280;6451;42.630;23.382;2023-02-03T01:00:28;94635.38;;;2.13;100.00
12775;BME280;6451;42.630;23.382;2023-02-03T01:02:55;94648.13;;;2.21;100.00
12775;BME280;6451;42.630;23.382;2023-02-03T01:05:23;94663.41;;;2.20;100.00
12775;BME280;6451;42.630;23.382;2023-02-03T01:07:50;94646.03;;;2.18;100.00
12775;BME280;6451;42.630;23.382;2023-02-03T01:10:17;94623.72;;;2.04;100.00
12775;BME280;6451;42.630;23.382;2023-02-03T01:12:44;94655.16;;;2.17;100.00
12775;BME280;6451;42.630;23.382;2023-02-03T01:15:12;94658.34;;;2.19;100.00
12775;BME280;6451;42.630;23.382;2023-02-03T01:17:39;94667.28;;;2.09;100.00
12775;BME280;6451;42.630;23.382;2023-02-03T01:20:07;94664.63;;;2.09;100.00
12775;BME280;6451;42.630;23.382;2023-02-03T01:22:36;94655.16;;;1.93;100.00
12775;BME280;6451;42.630;23.382;2023-02-03T01:25:04;94675.19;;;1.95;100.00
12775;BME280;6451;42.630;23.382;2023-02-03T01:27:31;94662.50;;;2.06;100.00
12775;BME280;6451;42.630;23.382;2023-02-03T01:29:58;94655.78;;;2.09;100.00
12775;BME280;6451;42.630;23.382;2023-02-03T01:32:27;94657.09;;;2.11;100.00
12775;BME280;6451;42.630;23.382;2023-02-03T01:34:53;94652.19;;;2.18;100.00
12775;BME280;6451;42.630;23.382;2023-02-03T01:37:20;94637.16;;;1.99;100.00
12775;BME280;6451;42.630;23.382;2023-02-03T01:39:47;94650.16;;;2.10;100.00
12775;BME280;6451;42.630;23.382;2023-02-03T01:42:15;94644.97;;;1.95;100.00
12775;BME280;6451;42.630;23.382;2023-02-03T01:44:44;94654.25;;;2.03;100.00
12775;BME280;6451;42.630;23.382;2023-02-03T01:47:29;94672.19;;;2.02;100.00
12775;BME280;6451;42.630;23.382;2023-02-03T01:50:02;94674.88;;;2.02;100.00
12775;BME280;6451;42.630;23.382;2023-02-03T01:52:32;94668.09;;;2.10;100.00
12775;BME280;6451;42.630;23.382;2023-02-03T01:55:01;94677.19;;;2.09;100.00
12775;BME280;6451;42.630;23.382;2023-02-03T01:57:33;94672.16;;;2.07;100.00
12775;BME280;6451;42.630;23.382;2023-02-03T02:00:04;94653.56;;;1.92;100.00
12775;BME280;6451;42.630;23.382;2023-02-03T02:02:33;94672.22;;;1.97;100.00
12775;BME280;6451;42.630;23.382;2023-02-03T02:05:04;94663.56;;;2.05;100.00
12775;BME280;6451;42.630;23.382;2023-02-03T02:07:33;94680.22;;;2.02;100.00
12775;BME280;6451;42.630;23.382;2023-02-03T02:10:03;94677.53;;;2.02;100.00
12775;BME280;6451;42.630;23.382;2023-02-03T02:12:30;94678.72;;;1.91;100.00
12775;BME280;6451;42.630;23.382;2023-02-03T02:14:57;94681.16;;;1.87;100.00
12775;BME280;6451;42.630;23.382;2023-02-03T02:17:44;94686.56;;;2.06;100.00
12775;BME280;6451;42.630;23.382;2023-02-03T02:20:37;94677.97;;;1.85;100.00
12775;BME280;6451;42.630;23.382;2023-02-03T02:23:27;94684.28;;;2.00;100.00
12775;BME280;6451;42.630;23.382;2023-02-03T02:26:21;94641.47;;;1.71;100.00
12775;BME280;6451;42.630;23.382;2023-02-03T02:29:11;94683.69;;;2.03;100.00
12775;BME280;6451;42.630;23.382;2023-02-03T02:31:58;94687.19;;;1.98;100.00
12775;BME280;6451;42.630;23.382;2023-02-03T02:34:38;94670.19;;;1.89;100.00
12775;BME280;6451;42.630;23.382;2023-02-03T02:37:10;94680.84;;;1.94;100.00
12775;BME280;6451;42.630;23.382;2023-02-03T02:39:45;94656.63;;;1.80;100.00
12775;BME280;6451;42.630;23.382;2023-02-03T02:42:17;94702.56;;;1.87;100.00
12775;BME280;6451;42.630;23.382;2023-02-03T02:44:50;94699.38;;;1.85;100.00
12775;BME280;6451;42.630;23.382;2023-02-03T02:47:21;94685.75;;;1.82;100.00
12775;BME280;6451;42.630;23.382;2023-02-03T02:49:54;94678.44;;;1.92;100.00
12775;BME280;6451;42.630;23.382;2023-02-03T02:52:27;94659.25;;;1.85;100.00
12775;BME280;6451;42.630;23.382;2023-02-03T02:54:59;94651.59;;;1.74;100.00
12775;BME280;6451;42.630;23.382;2023-02-03T02:57:28;94585.44;;;1.31;100.00
12775;BME280;6451;42.630;23.382;2023-02-03T02:59:56;94657.75;;;1.74;100.00
12775;BME280;6451;42.630;23.382;2023-02-03T03:02:32;94681.34;;;1.96;100.00
12775;BME280;6451;42.630;23.382;2023-02-03T03:05:00;94672.34;;;1.87;100.00
12775;BME280;6451;42.630;23.382;2023-02-03T03:07:34;94689.00;;;1.79;100.00
12775;BME280;6451;42.630;23.382;2023-02-03T03:10:07;94692.16;;;1.86;100.00
12775;BME280;6451;42.630;23.382;2023-02-03T03:12:39;94685.22;;;1.85;100.00
12775;BME280;6451;42.630;23.382;2023-02-03T03:15:13;94663.53;;;1.57;100.00
12775;BME280;6451;42.630;23.382;2023-02-03T03:17:48;94694.88;;;1.81;100.00
12775;BME280;6451;42.630;23.382;2023-02-03T03:20:20;94681.59;;;1.71;100.00
12775;BME280;6451;42.630;23.382;2023-02-03T03:22:51;94710.88;;;1.86;100.00
12775;BME280;6451;42.630;23.382;2023-02-03T03:25:24;94703.16;;;1.84;100.00
12775;BME280;6451;42.630;23.382;2023-02-03T03:27:58;94707.16;;;1.82;100.00
12775;BME280;6451;42.630;23.382;2023-02-03T03:30:32;94699.44;;;1.80;100.00
12775;BME280;6451;42.630;23.382;2023-02-03T03:33:02;94709.56;;;1.83;100.00
12775;BME280;6451;42.630;23.382;2023-02-03T03:35:33;94705.75;;;1.89;100.00
12775;BME280;6451;42.630;23.382;2023-02-03T03:38:08;94710.34;;;1.84;100.00
12775;BME280;6451;42.630;23.382;2023-02-03T03:40:38;94712.47;;;1.87;100.00
12775;BME280;6451;42.630;23.382;2023-02-03T03:43:14;94711.97;;;1.85;100.00
12775;BME280;6451;42.630;23.382;2023-02-03T03:45:46;94732.84;;;1.83;100.00
12775;BME280;6451;42.630;23.382;2023-02-03T03:48:20;94714.31;;;1.62;100.00
12775;BME280;6451;42.630;23.382;2023-02-03T03:50:52;94731.72;;;1.89;100.00
12775;BME280;6451;42.630;23.382;2023-02-03T03:53:22;94732.56;;;1.84;100.00
12775;BME280;6451;42.630;23.382;2023-02-03T03:55:51;94685.50;;;1.54;100.00
12775;BME280;6451;42.630;23.382;2023-02-03T03:58:23;94731.50;;;1.85;100.00
12775;BME280;6451;42.630;23.382;2023-02-03T04:00:53;94751.09;;;2.05;100.00
12775;BME280;6451;42.630;23.382;2023-02-03T04:03:26;94724.81;;;1.83;100.00
12775;BME280;6451;42.630;23.382;2023-02-03T04:05:54;94751.38;;;2.03;100.00
12775;BME280;6451;42.630;23.382;2023-02-03T04:08:21;94765.25;;;2.10;100.00
12775;BME280;6451;42.630;23.382;2023-02-03T04:10:48;94766.38;;;2.04;100.00
12775;BME280;6451;42.630;23.382;2023-02-03T04:13:14;94756.78;;;1.98;100.00
12775;BME280;6451;42.630;23.382;2023-02-03T04:15:45;94768.75;;;2.06;100.00
12775;BME280;6451;42.630;23.382;2023-02-03T04:18:12;94755.25;;;1.92;100.00
12775;BME280;6451;42.630;23.382;2023-02-03T04:20:42;94771.97;;;2.08;100.00
12775;BME280;6451;42.630;23.382;2023-02-03T04:23:09;94770.88;;;2.09;100.00
12775;BME280;6451;42.630;23.382;2023-02-03T04:25:36;94782.47;;;1.99;100.00
12775;BME280;6451;42.630;23.382;2023-02-03T04:28:04;94787.88;;;1.94;100.00
12775;BME280;6451;42.630;23.382;2023-02-03T04:30:31;94772.91;;;1.93;100.00
12775;BME280;6451;42.630;23.382;2023-02-03T04:32:59;94769.38;;;1.98;100.00
12775;BME280;6451;42.630;23.382;2023-02-03T04:35:26;94791.34;;;1.94;100.00
12775;BME280;6451;42.630;23.382;2023-02-03T04:37:55;94773.69;;;1.93;100.00
12775;BME280;6451;42.630;23.382;2023-02-03T04:40:22;94775.38;;;1.84;100.00
12775;BME280;6451;42.630;23.382;2023-02-03T04:42:48;94799.09;;;1.96;100.00
12775;BME280;6451;42.630;23.382;2023-02-03T04:45:15;94766.13;;;1.72;100.00
12775;BME280;6451;42.630;23.382;2023-02-03T04:47:42;94806.34;;;1.90;100.00
12775;BME280;6451;42.630;23.382;2023-02-03T04:50:09;94781.78;;;1.83;100.00
12775;BME280;6451;42.630;23.382;2023-02-03T04:52:37;94802.84;;;1.95;100.00
12775;BME280;6451;42.630;23.382;2023-02-03T04:55:06;94794.06;;;1.89;100.00
12775;BME280;6451;42.630;23.382;2023-02-03T04:57:33;94802.16;;;1.79;100.00
12775;BME280;6451;42.630;23.382;2023-02-03T05:00:01;94809.31;;;1.89;100.00
12775;BME280;6451;42.630;23.382;2023-02-03T05:02:28;94819.53;;;1.82;100.00
12775;BME280;6451;42.630;23.382;2023-02-03T05:04:56;94816.03;;;1.86;100.00
12775;BME280;6451;42.630;23.382;2023-02-03T05:07:23;94817.84;;;1.91;100.00
12775;BME280;6451;42.630;23.382;2023-02-03T05:09:50;94815.53;;;1.79;100.00
12775;BME280;6451;42.630;23.382;2023-02-03T05:12:19;94827.50;;;1.92;100.00
12775;BME280;6451;42.630;23.382;2023-02-03T05:14:46;94796.41;;;1.62;100.00
12775;BME280;6451;42.630;23.382;2023-02-03T05:17:12;94815.47;;;1.89;100.00
12775;BME280;6451;42.630;23.382;2023-02-03T05:19:40;94800.88;;;1.77;100.00
12775;BME280;6451;42.630;23.382;2023-02-03T05:22:07;94842.47;;;1.93;100.00
12775;BME280;6451;42.630;23.382;2023-02-03T05:24:34;94843.75;;;2.01;100.00
12775;BME280;6451;42.630;23.382;2023-02-03T05:27:01;94847.84;;;1.88;100.00
12775;BME280;6451;42.630;23.382;2023-02-03T05:29:29;94845.09;;;1.98;100.00
12775;BME280;6451;42.630;23.382;2023-02-03T05:31:56;94824.25;;;1.95;100.00
12775;BME280;6451;42.630;23.382;2023-02-03T05:34:23;94835.97;;;1.99;100.00
12775;BME280;6451;42.630;23.382;2023-02-03T05:36:50;94816.50;;;1.93;100.00
12775;BME280;6451;42.630;23.382;2023-02-03T05:39:17;94837.59;;;2.00;100.00
12775;BME280;6451;42.630;23.382;2023-02-03T05:41:44;94844.22;;;2.08;100.00
12775;BME280;6451;42.630;23.382;2023-02-03T05:44:19;94841.41;;;1.94;100.00
12775;BME280;6451;42.630;23.382;2023-02-03T05:46:48;94847.34;;;1.86;100.00
12775;BME280;6451;42.630;23.382;2023-02-03T05:49:15;94843.91;;;1.75;100.00
12775;BME280;6451;42.630;23.382;2023-02-03T05:51:45;94838.88;;;1.68;100.00
12775;BME280;6451;42.630;23.382;2023-02-03T05:54:12;94842.13;;;1.65;100.00
12775;BME280;6451;42.630;23.382;2023-02-03T05:56:39;94852.78;;;1.71;100.00
12775;BME280;6451;42.630;23.382;2023-02-03T05:59:06;94841.28;;;1.70;100.00
12775;BME280;6451;42.630;23.382;2023-02-03T06:01:35;94842.59;;;1.73;100.00
12775;BME280;6451;42.630;23.382;2023-02-03T06:04:04;94852.03;;;1.65;100.00
12775;BME280;6451;42.630;23.382;2023-02-03T06:06:32;94836.25;;;1.63;100.00
12775;BME280;6451;42.630;23.382;2023-02-03T06:08:59;94838.16;;;1.58;100.00
12775;BME280;6451;42.630;23.382;2023-02-03T06:11:27;94845.34;;;1.62;100.00
12775;BME280;6451;42.630;23.382;2023-02-03T06:13:55;94857.38;;;1.65;100.00
12775;BME280;6451;42.630;23.382;2023-02-03T06:16:23;94855.75;;;1.69;100.00
12775;BME280;6451;42.630;23.382;2023-02-03T06:18:50;94845.59;;;1.61;100.00
12775;BME280;6451;42.630;23.382;2023-02-03T06:21:19;94862.94;;;1.74;100.00
12775;BME280;6451;42.630;23.382;2023-02-03T06:23:46;94855.22;;;1.67;100.00
12775;BME280;6451;42.630;23.382;2023-02-03T06:26:13;94860.72;;;1.86;100.00
12775;BME280;6451;42.630;23.382;2023-02-03T06:28:40;94865.75;;;1.92;100.00
12775;BME280;6451;42.630;23.382;2023-02-03T06:31:07;94856.88;;;1.97;100.00
12775;BME280;6451;42.630;23.382;2023-02-03T06:33:34;94870.03;;;1.93;100.00
12775;BME280;6451;42.630;23.382;2023-02-03T06:36:01;94877.16;;;2.08;100.00
12775;BME280;6451;42.630;23.382;2023-02-03T06:38:29;94875.31;;;1.99;100.00
12775;BME280;6451;42.630;23.382;2023-02-03T06:40:56;94860.59;;;2.01;100.00
12775;BME280;6451;42.630;23.382;2023-02-03T06:43:23;94863.56;;;2.00;100.00
12775;BME280;6451;42.630;23.382;2023-02-03T06:45:51;94878.19;;;2.12;100.00
12775;BME280;6451;42.630;23.382;2023-02-03T06:48:18;94875.19;;;2.19;100.00
12775;BME280;6451;42.630;23.382;2023-02-03T06:50:44;94843.31;;;1.88;100.00
12775;BME280;6451;42.630;23.382;2023-02-03T06:53:11;94874.97;;;2.15;100.00
12775;BME280;6451;42.630;23.382;2023-02-03T06:55:40;94863.72;;;2.13;100.00
12775;BME280;6451;42.630;23.382;2023-02-03T06:58:07;94892.56;;;2.21;100.00
12775;BME280;6451;42.630;23.382;2023-02-03T07:00:34;94855.69;;;2.13;100.00
12775;BME280;6451;42.630;23.382;2023-02-03T07:03:01;94811.44;;;1.92;100.00
12775;BME280;6451;42.630;23.382;2023-02-03T07:05:28;94829.59;;;1.95;100.00
12775;BME280;6451;42.630;23.382;2023-02-03T07:07:55;94868.56;;;2.45;100.00
12775;BME280;6451;42.630;23.382;2023-02-03T07:10:24;94875.31;;;2.38;100.00
12775;BME280;6451;42.630;23.382;2023-02-03T07:12:54;94853.16;;;2.27;100.00
12775;BME280;6451;42.630;23.382;2023-02-03T07:15:21;94835.72;;;2.01;100.00
12775;BME280;6451;42.630;23.382;2023-02-03T07:17:47;94842.50;;;2.22;100.00
12775;BME280;6451;42.630;23.382;2023-02-03T07:20:19;94865.00;;;2.50;100.00
12775;BME280;6451;42.630;23.382;2023-02-03T07:22:51;94872.41;;;2.63;100.00
12775;BME280;6451;42.630;23.382;2023-02-03T07:25:19;94892.25;;;2.57;100.00
12775;BME280;6451;42.630;23.382;2023-02-03T07:27:50;94899.97;;;2.64;100.00
12775;BME280;6451;42.630;23.382;2023-02-03T07:30:19;94889.41;;;2.77;100.00
12775;BME280;6451;42.630;23.382;2023-02-03T07:32:47;94892.56;;;2.85;100.00
12775;BME280;6451;42.630;23.382;2023-02-03T07:35:15;94887.34;;;2.69;100.00
12775;BME280;6451;42.630;23.382;2023-02-03T07:37:42;94905.66;;;2.86;100.00
12775;BME280;6451;42.630;23.382;2023-02-03T07:40:10;94904.06;;;2.85;100.00
12775;BME280;6451;42.630;23.382;2023-02-03T07:42:40;94914.22;;;2.88;100.00
12775;BME280;6451;42.630;23.382;2023-02-03T07:45:09;94903.13;;;3.00;100.00
12775;BME280;6451;42.630;23.382;2023-02-03T07:47:37;94913.03;;;2.99;100.00
12775;BME280;6451;42.630;23.382;2023-02-03T07:50:05;94908.06;;;3.12;100.00
12775;BME280;6451;42.630;23.382;2023-02-03T07:52:34;94906.50;;;3.05;100.00
12775;BME280;6451;42.630;23.382;2023-02-03T07:55:02;94923.13;;;3.08;100.00
12775;BME280;6451;42.630;23.382;2023-02-03T07:57:29;94913.13;;;3.13;100.00
12775;BME280;6451;42.630;23.382;2023-02-03T07:59:56;94868.22;;;2.76;100.00
12775;BME280;6451;42.630;23.382;2023-02-03T08:02:23;94905.84;;;2.95;100.00
12775;BME280;6451;42.630;23.382;2023-02-03T08:04:51;94886.97;;;2.76;100.00
12775;BME280;6451;42.630;23.382;2023-02-03T08:07:18;94900.97;;;2.97;100.00
12775;BME280;6451;42.630;23.382;2023-02-03T08:09:45;94904.88;;;2.86;100.00
12775;BME280;6451;42.630;23.382;2023-02-03T08:12:12;94863.06;;;2.85;100.00
12775;BME280;6451;42.630;23.382;2023-02-03T08:14:38;94897.50;;;2.96;100.00
12775;BME280;6451;42.630;23.382;2023-02-03T08:17:09;94918.75;;;3.17;100.00
12775;BME280;6451;42.630;23.382;2023-02-03T08:19:36;94905.22;;;3.03;100.00
12775;BME280;6451;42.630;23.382;2023-02-03T08:22:04;94915.91;;;3.08;100.00
12775;BME280;6451;42.630;23.382;2023-02-03T08:24:31;94926.50;;;3.18;100.00
12775;BME280;6451;42.630;23.382;2023-02-03T08:26:59;94918.66;;;2.98;100.00
12775;BME280;6451;42.630;23.382;2023-02-03T08:29:26;94904.00;;;2.90;100.00
12775;BME280;6451;42.630;23.382;2023-02-03T08:31:53;94911.63;;;3.07;100.00
12775;BME280;6451;42.630;23.382;2023-02-03T08:34:23;94756.78;;;1.98;100.00
12775;BME280;6451;42.630;23.382;2023-02-03T08:36:50;94912.41;;;3.08;100.00
12775;BME280;6451;42.630;23.382;2023-02-03T08:39:18;94912.63;;;3.11;100.00
12775;BME280;6451;42.630;23.382;2023-02-03T08:41:45;94897.28;;;3.17;100.00
12775;BME280;6451;42.630;23.382;2023-02-03T08:44:12;94902.69;;;3.35;100.00
12775;BME280;6451;42.630;23.382;2023-02-03T08:46:39;94922.38;;;3.50;100.00
12775;BME280;6451;42.630;23.382;2023-02-03T08:49:08;94940.97;;;3.65;100.00
12775;BME280;6451;42.630;23.382;2023-02-03T08:51:36;94935.25;;;3.72;100.00
12775;BME280;6451;42.630;23.382;2023-02-03T08:54:03;94923.78;;;3.66;100.00
12775;BME280;6451;42.630;23.382;2023-02-03T08:56:31;94967.94;;;3.55;100.00
12775;BME280;6451;42.630;23.382;2023-02-03T08:58:59;94930.78;;;3.43;100.00
12775;BME280;6451;42.630;23.382;2023-02-03T09:01:26;94932.31;;;3.49;100.00
12775;BME280;6451;42.630;23.382;2023-02-03T09:03:53;94971.53;;;3.69;100.00
12775;BME280;6451;42.630;23.382;2023-02-03T09:06:23;94905.97;;;3.32;100.00
12775;BME280;6451;42.630;23.382;2023-02-03T09:08:51;94924.06;;;3.46;100.00
12775;BME280;6451;42.630;23.382;2023-02-03T09:11:20;94925.06;;;3.50;100.00
12775;BME280;6451;42.630;23.382;2023-02-03T09:13:48;94953.50;;;3.94;100.00
12775;BME280;6451;42.630;23.382;2023-02-03T09:16:18;94914.72;;;3.62;100.00
12775;BME280;6451;42.630;23.382;2023-02-03T09:18:47;94918.50;;;3.61;100.00
12775;BME280;6451;42.630;23.382;2023-02-03T09:21:14;94915.88;;;3.56;100.00
12775;BME280;6451;42.630;23.382;2023-02-03T09:23:43;94907.75;;;3.61;100.00
12775;BME280;6451;42.630;23.382;2023-02-03T09:26:13;94927.97;;;3.53;100.00
12775;BME280;6451;42.630;23.382;2023-02-03T09:28:45;94883.47;;;3.28;100.00
12775;BME280;6451;42.630;23.382;2023-02-03T09:31:15;94931.91;;;3.37;100.00
12775;BME280;6451;42.630;23.382;2023-02-03T09:33:42;94918.31;;;3.28;100.00
12775;BME280;6451;42.630;23.382;2023-02-03T09:36:10;94914.84;;;3.28;100.00
12775;BME280;6451;42.630;23.382;2023-02-03T09:38:37;94906.34;;;3.45;100.00
12775;BME280;6451;42.630;23.382;2023-02-03T09:41:13;94883.06;;;3.40;100.00
12775;BME280;6451;42.630;23.382;2023-02-03T09:43:49;94890.94;;;3.55;100.00
12775;BME280;6451;42.630;23.382;2023-02-03T09:46:21;94915.75;;;3.42;100.00
12775;BME280;6451;42.630;23.382;2023-02-03T09:48:52;94922.09;;;3.27;100.00
12775;BME280;6451;42.630;23.382;2023-02-03T09:51:23;94915.38;;;3.30;100.00
12775;BME280;6451;42.630;23.382;2023-02-03T09:53:56;94922.63;;;3.53;100.00
12775;BME280;6451;42.630;23.382;2023-02-03T09:56:28;94930.38;;;3.55;100.00
12775;BME280;6451;42.630;23.382;2023-02-03T09:58:55;94924.91;;;3.41;100.00
12775;BME280;6451;42.630;23.382;2023-02-03T10:01:29;94884.34;;;3.00;97.62
12775;BME280;6451;42.630;23.382;2023-02-03T10:04:02;94897.28;;;2.93;93.68
12775;BME280;6451;42.630;23.382;2023-02-03T10:06:35;94893.59;;;2.84;96.09
12775;BME280;6451;42.630;23.382;2023-02-03T10:09:27;94939.44;;;3.11;96.96
12775;BME280;6451;42.630;23.382;2023-02-03T10:12:18;94906.50;;;3.05;97.76
12775;BME280;6451;42.630;23.382;2023-02-03T10:14:58;94939.06;;;3.23;97.22
12775;BME280;6451;42.630;23.382;2023-02-03T10:17:32;94936.09;;;3.24;96.43
12775;BME280;6451;42.630;23.382;2023-02-03T10:20:07;94947.09;;;3.47;96.61
12775;BME280;6451;42.630;23.382;2023-02-03T10:22:41;94876.34;;;3.19;95.51
12775;BME280;6451;42.630;23.382;2023-02-03T10:25:17;94924.41;;;3.58;94.40
12775;BME280;6451;42.630;23.382;2023-02-03T10:27:50;94911.16;;;3.67;94.72
12775;BME280;6451;42.630;23.382;2023-02-03T10:30:19;94918.59;;;3.94;94.45
12775;BME280;6451;42.630;23.382;2023-02-03T10:32:50;94918.00;;;3.97;93.05
12775;BME280;6451;42.630;23.382;2023-02-03T10:35:20;94917.22;;;3.96;91.20
12775;BME280;6451;42.630;23.382;2023-02-03T10:37:49;94926.50;;;4.04;91.74
12775;BME280;6451;42.630;23.382;2023-02-03T10:40:22;94912.66;;;4.15;88.02
12775;BME280;6451;42.630;23.382;2023-02-03T10:42:50;94904.13;;;4.46;84.81
12775;BME280;6451;42.630;23.382;2023-02-03T10:45:37;94875.81;;;4.35;82.36
12775;BME280;6451;42.630;23.382;2023-02-03T10:48:06;94910.44;;;4.36;83.46
12775;BME280;6451;42.630;23.382;2023-02-03T10:50:41;94908.31;;;4.52;82.55
12775;BME280;6451;42.630;23.382;2023-02-03T10:53:22;94910.84;;;4.62;82.68
12775;BME280;6451;42.630;23.382;2023-02-03T10:55:59;94904.69;;;4.43;82.73
12775;BME280;6451;42.630;23.382;2023-02-03T10:58:28;94934.84;;;4.21;83.31
12775;BME280;6451;42.630;23.382;2023-02-03T11:01:03;94950.16;;;4.21;84.11
12775;BME280;6451;42.630;23.382;2023-02-03T11:03:33;94922.16;;;4.08;84.10
12775;BME280;6451;42.630;23.382;2023-02-03T11:06:05;94899.66;;;4.04;82.78
12775;BME280;6451;42.630;23.382;2023-02-03T11:08:34;94932.09;;;3.88;83.57
12775;BME280;6451;42.630;23.382;2023-02-03T11:11:02;94929.78;;;4.01;82.33
12775;BME280;6451;42.630;23.382;2023-02-03T11:13:31;94947.47;;;4.21;81.45
12775;BME280;6451;42.630;23.382;2023-02-03T11:16:00;94922.50;;;4.39;79.53
12775;BME280;6451;42.630;23.382;2023-02-03T11:18:41;94901.78;;;4.07;76.10
12775;BME280;6451;42.630;23.382;2023-02-03T11:21:15;94915.47;;;4.24;74.05
12775;BME280;6451;42.630;23.382;2023-02-03T11:24:01;94914.09;;;4.27;72.94
12775;BME280;6451;42.630;23.382;2023-02-03T11:26:32;94801.56;;;3.74;72.90
12775;BME280;6451;42.630;23.382;2023-02-03T11:29:00;94891.97;;;4.49;73.73
12775;BME280;6451;42.630;23.382;2023-02-03T11:31:30;94868.88;;;4.15;75.15
12775;BME280;6451;42.630;23.382;2023-02-03T11:34:01;94848.19;;;4.15;75.52
12775;BME280;6451;42.630;23.382;2023-02-03T11:36:31;94925.28;;;4.15;73.93
12775;BME280;6451;42.630;23.382;2023-02-03T11:39:23;94873.25;;;3.92;72.99
12775;BME280;6451;42.630;23.382;2023-02-03T11:41:50;94885.59;;;3.93;73.94
12775;BME280;6451;42.630;23.382;2023-02-03T11:44:21;94893.13;;;3.91;72.22
12775;BME280;6451;42.630;23.382;2023-02-03T11:46:51;94883.84;;;4.02;71.83
12775;BME280;6451;42.630;23.382;2023-02-03T11:49:42;94866.53;;;4.27;70.88
12775;BME280;6451;42.630;23.382;2023-02-03T11:52:38;94732.69;;;3.69;70.66
12775;BME280;6451;42.630;23.382;2023-02-03T11:55:15;94832.41;;;4.74;69.80
12775;BME280;6451;42.630;23.382;2023-02-03T11:57:55;94826.22;;;4.73;69.07
12775;BME280;6451;42.630;23.382;2023-02-03T12:00:30;94823.94;;;4.67;67.66
12775;BME280;6451;42.630;23.382;2023-02-03T12:03:33;94861.13;;;4.92;68.06
12775;BME280;6451;42.630;23.382;2023-02-03T12:06:27;94869.59;;;4.53;66.41
12775;BME280;6451;42.630;23.382;2023-02-03T12:09:16;94770.22;;;3.88;67.68
12775;BME280;6451;42.630;23.382;2023-02-03T12:12:00;94804.56;;;4.05;67.88
12775;BME280;6451;42.630;23.382;2023-02-03T12:14:46;94752.03;;;3.85;66.74
12775;BME280;6451;42.630;23.382;2023-02-03T12:17:37;94826.78;;;4.43;65.48
12775;BME280;6451;42.630;23.382;2023-02-03T12:20:24;94835.47;;;4.54;64.35
12775;BME280;6451;42.630;23.382;2023-02-03T12:23:08;94802.78;;;4.33;64.22
12775;BME280;6451;42.630;23.382;2023-02-03T12:25:49;94862.34;;;4.54;62.84
12775;BME280;6451;42.630;23.382;2023-02-03T12:28:34;94830.00;;;4.26;62.43
12775;BME280;6451;42.630;23.382;2023-02-03T12:31:13;94849.75;;;3.84;63.28
12775;BME280;6451;42.630;23.382;2023-02-03T12:33:45;94594.34;;;2.41;63.25
12775;BME280;6451;42.630;23.382;2023-02-03T12:36:18;94867.50;;;3.99;62.18
12775;BME280;6451;42.630;23.382;2023-02-03T12:38:54;94777.44;;;3.36;62.57
12775;BME280;6451;42.630;23.382;2023-02-03T12:41:25;94855.69;;;3.81;62.62
12775;BME280;6451;42.630;23.382;2023-02-03T12:43:59;94788.63;;;3.62;62.47
12775;BME280;6451;42.630;23.382;2023-02-03T12:46:48;94835.25;;;3.85;63.34
12775;BME280;6451;42.630;23.382;2023-02-03T12:49:27;94844.34;;;4.03;63.88
12775;BME280;6451;42.630;23.382;2023-02-03T12:51:58;94830.69;;;4.18;63.95
12775;BME280;6451;42.630;23.382;2023-02-03T12:54:36;94867.50;;;3.99;64.57
12775;BME280;6451;42.630;23.382;2023-02-03T12:57:14;94799.97;;;3.92;64.34
12775;BME280;6451;42.630;23.382;2023-02-03T13:02:39;94828.31;;;3.98;66.15
12775;BME280;6451;42.630;23.382;2023-02-03T13:05:32;94836.59;;;4.01;66.54
12775;BME280;6451;42.630;23.382;2023-02-03T13:08:21;94817.84;;;4.15;66.98
12775;BME280;6451;42.630;23.382;2023-02-03T13:11:19;94824.41;;;4.09;66.34
12775;BME280;6451;42.630;23.382;2023-02-03T13:13:53;94827.09;;;4.09;67.18
12775;BME280;6451;42.630;23.382;2023-02-03T13:16:32;94780.81;;;3.79;68.00
12775;BME280;6451;42.630;23.382;2023-02-03T13:19:05;94824.63;;;3.94;69.36
12775;BME280;6451;42.630;23.382;2023-02-03T13:21:33;94815.97;;;3.97;70.36
12775;BME280;6451;42.630;23.382;2023-02-03T13:24:03;94822.97;;;3.79;71.41
12775;BME280;6451;42.630;23.382;2023-02-03T13:26:49;94815.41;;;3.81;72.02